Time;durP1;ratioP1;P1;durP2;ratioP2;P2;SDS_P1;SDS_P2;PMS_P1;PMS_P2;Temp;Humidity;BMP_temperature;BMP_pressure;BME280_temperature;BME280_humidity;BME280_pressure;Samples;Min_cycle;Max_cycle;Signal;HPM_P1;HPM_P2
2022/02/18 00:00:44;;;;;;;0.10;0.10;;;5.00;99.90;;;;;;5034281;28;20041;-85
2022/02/18 00:03:11;;;;;;;0.10;0.10;;;5.00;99.90;;;;;;5051293;28;20482;-92
2022/02/18 00:05:38;;;;;;;0.10;0.10;;;5.60;99.90;;;;;;5034360;28;20080;-85
2022/02/18 00:08:05;;;;;;;0.10;0.10;;;4.90;99.90;;;;;;5033846;28;20087;-85
2022/02/18 00:10:33;;;;;;;0.10;0.10;;;5.30;99.90;;;;;;5033828;28;20037;-91
2022/02/18 00:13:00;;;;;;;0.10;0.10;;;4.90;99.90;;;;;;5050697;28;20084;-91
2022/02/18 00:15:27;;;;;;;0.10;0.10;;;4.90;99.90;;;;;;5051794;28;20037;-92
2022/02/18 00:17:54;;;;;;;0.10;0.10;;;5.00;99.90;;;;;;5034085;28;20095;-92
2022/02/18 00:20:21;;;;;;;0.10;0.10;;;5.00;99.90;;;;;;5050961;28;20044;-85
2022/02/18 00:22:47;;;;;;;0.10;0.10;;;5.20;99.90;;;;;;5033874;28;20041;-85
2022/02/18 00:25:14;;;;;;;0.17;0.17;;;4.90;99.90;;;;;;5034463;28;20149;-92
2022/02/18 00:27:41;;;;;;;0.10;0.10;;;4.90;99.90;;;;;;5034722;28;20041;-91
2022/02/18 00:30:09;;;;;;;0.10;0.10;;;4.90;99.90;;;;;;5034038;28;20038;-85
2022/02/18 00:32:37;;;;;;;0.10;0.10;;;4.90;99.90;;;;;;5049963;28;20129;-92
2022/02/18 00:35:05;;;;;;;0.10;0.10;;;4.90;99.90;;;;;;5050430;28;20525;-92
2022/02/18 00:37:31;;;;;;;0.10;0.10;;;4.80;99.90;;;;;;5034125;28;20033;-85
2022/02/18 00:39:59;;;;;;;0.10;0.10;;;4.80;99.90;;;;;;5034244;28;20095;-91
2022/02/18 00:42:26;;;;;;;0.17;0.17;;;4.80;99.90;;;;;;5034406;28;20052;-86
2022/02/18 00:44:53;;;;;;;0.10;0.10;;;4.80;99.90;;;;;;5050022;28;20052;-91
2022/02/18 00:47:20;;;;;;;0.10;0.10;;;4.80;99.90;;;;;;5033938;28;20494;-85
2022/02/18 00:49:47;;;;;;;0.10;0.10;;;5.20;99.90;;;;;;5050069;28;20708;-91
2022/02/18 00:52:15;;;;;;;0.10;0.10;;;4.80;99.90;;;;;;5033739;28;20045;-92
2022/02/18 00:54:42;;;;;;;0.10;0.10;;;4.80;99.90;;;;;;5033211;28;20506;-85
2022/02/18 00:57:09;;;;;;;0.10;0.10;;;4.80;99.90;;;;;;5034062;28;20137;-85
2022/02/18 00:59:35;;;;;;;0.10;0.10;;;4.80;99.90;;;;;;5034196;28;20037;-85
2022/02/18 01:02:02;;;;;;;0.10;0.10;;;4.80;99.90;;;;;;5033671;28;20045;-92
2022/02/18 01:04:29;;;;;;;0.10;0.10;;;4.70;99.90;;;;;;5034185;28;20084;-85
2022/02/18 01:06:56;;;;;;;0.10;0.10;;;4.70;99.90;;;;;;5033219;28;20519;-91
2022/02/18 01:09:22;;;;;;;0.10;0.10;;;4.80;99.90;;;;;;5034258;28;20038;-92
2022/02/18 01:11:49;;;;;;;0.10;0.10;;;4.90;99.90;;;;;;5049478;28;20434;-90
2022/02/18 01:14:16;;;;;;;0.10;0.10;;;5.90;99.90;;;;;;5050507;28;20045;-91
2022/02/18 01:16:43;;;;;;;0.10;0.10;;;5.20;99.90;;;;;;5033766;28;20037;-85
2022/02/18 01:19:10;;;;;;;0.17;0.17;;;4.20;99.90;;;;;;5066444;28;20045;-85
2022/02/18 01:21:37;;;;;;;0.10;0.10;;;4.70;99.90;;;;;;5033380;28;20044;-86
2022/02/18 01:24:05;;;;;;;0.10;0.10;;;4.70;99.90;;;;;;5033599;28;20099;-85
2022/02/18 01:26:35;;;;;;;0.10;0.10;;;4.60;99.90;;;;;;5033922;28;20083;-91
2022/02/18 01:29:03;;;;;;;0.10;0.10;;;4.60;99.90;;;;;;5049775;28;20052;-90
2022/02/18 01:31:30;;;;;;;0.10;0.10;;;4.60;99.90;;;;;;5049935;28;20041;-92
2022/02/18 01:33:57;;;;;;;0.13;0.13;;;4.50;99.90;;;;;;5032969;28;20387;-85
2022/02/18 01:36:26;;;;;;;0.10;0.10;;;5.00;99.90;;;;;;5033888;28;20044;-85
2022/02/18 01:38:52;;;;;;;0.10;0.10;;;4.80;99.90;;;;;;5049445;28;20033;-91
2022/02/18 01:41:20;;;;;;;0.10;0.10;;;4.50;99.90;;;;;;5034269;28;20041;-91
2022/02/18 01:43:52;;;;;;;0.10;0.10;;;4.50;99.90;;;;;;5050026;28;20490;-91
2022/02/18 01:46:20;;;;;;;0.10;0.10;;;4.50;99.90;;;;;;5050020;28;20061;-91
2022/02/18 01:48:47;;;;;;;0.10;0.10;;;5.20;99.90;;;;;;5049088;28;20041;-85
2022/02/18 01:51:18;;;;;;;0.10;0.10;;;4.40;99.90;;;;;;5049740;28;20125;-91
2022/02/18 01:53:46;;;;;;;0.10;0.10;;;4.60;99.90;;;;;;5032932;28;20041;-85
2022/02/18 01:56:14;;;;;;;0.10;0.10;;;4.50;99.90;;;;;;5033343;28;20033;-90
2022/02/18 01:58:41;;;;;;;0.10;0.10;;;4.50;99.90;;;;;;5049265;28;20037;-88
2022/02/18 02:01:09;;;;;;;0.10;0.10;;;4.60;99.90;;;;;;5050231;28;20040;-86
2022/02/18 02:03:40;;;;;;;0.20;0.20;;;4.30;99.90;;;;;;5049937;28;20045;-91
2022/02/18 02:06:08;;;;;;;0.10;0.10;;;4.30;99.90;;;;;;5049110;28;20098;-92
2022/02/18 02:08:39;;;;;;;0.10;0.10;;;4.30;99.90;;;;;;5036928;28;20132;-85
2022/02/18 02:11:05;;;;;;;0.10;0.10;;;4.20;99.90;;;;;;5036870;28;20449;-92
2022/02/18 02:13:38;;;;;;;0.10;0.10;;;4.70;99.90;;;;;;5037305;28;20041;-85
2022/02/18 02:16:05;;;;;;;0.20;0.20;;;5.10;99.90;;;;;;5052473;28;20482;-85
2022/02/18 02:18:33;;;;;;;0.10;0.10;;;4.20;99.90;;;;;;5036356;28;20048;-85
2022/02/18 02:21:00;;;;;;;0.10;0.10;;;4.10;99.90;;;;;;5052919;28;20121;-85
2022/02/18 02:23:27;;;;;;;0.10;0.10;;;4.20;99.90;;;;;;5036214;28;20500;-91
2022/02/18 02:25:53;;;;;;;0.10;0.10;;;4.10;99.90;;;;;;5036635;28;20049;-85
2022/02/18 02:28:22;;;;;;;0.10;0.10;;;4.60;99.90;;;;;;5036869;28;20380;-91
2022/02/18 02:30:49;;;;;;;0.10;0.10;;;4.00;99.90;;;;;;5036534;28;20043;-85
2022/02/18 02:33:16;;;;;;;0.10;0.10;;;3.90;99.90;;;;;;5035780;28;20482;-85
2022/02/18 02:35:42;;;;;;;0.10;0.10;;;3.90;99.90;;;;;;5036264;28;20395;-91
2022/02/18 02:38:09;;;;;;;0.10;0.10;;;4.20;99.90;;;;;;5036381;28;20434;-91
2022/02/18 02:40:36;;;;;;;0.10;0.10;;;3.80;99.90;;;;;;5035672;28;20044;-85
2022/02/18 02:43:03;;;;;;;0.13;0.13;;;3.70;99.90;;;;;;5036288;28;20037;-85
2022/02/18 02:45:30;;;;;;;0.10;0.10;;;3.70;99.90;;;;;;5035791;28;20087;-85
2022/02/18 02:47:56;;;;;;;0.10;0.10;;;3.70;99.90;;;;;;5035876;28;20131;-85
2022/02/18 02:50:23;;;;;;;0.10;0.10;;;3.70;99.90;;;;;;5036024;28;20487;-85
2022/02/18 02:52:50;;;;;;;0.10;0.10;;;3.60;99.90;;;;;;5051710;28;20045;-85
2022/02/18 02:55:17;;;;;;;0.10;0.10;;;4.40;99.90;;;;;;5035689;28;20044;-85
2022/02/18 02:57:44;;;;;;;0.10;0.10;;;3.70;99.90;;;;;;5052427;28;20056;-85
2022/02/18 03:00:13;;;;;;;0.10;0.10;;;3.50;99.90;;;;;;5035653;28;20500;-92
2022/02/18 03:02:40;;;;;;;0.10;0.10;;;3.50;99.90;;;;;;5036098;28;20124;-92
2022/02/18 03:05:08;;;;;;;0.10;0.10;;;3.50;99.90;;;;;;5035808;28;20092;-85
2022/02/18 03:07:35;;;;;;;0.20;0.20;;;3.60;99.90;;;;;;5052354;28;20045;-85
2022/02/18 03:10:04;;;;;;;0.10;0.10;;;3.60;99.90;;;;;;5052190;28;20041;-85
2022/02/18 03:12:30;;;;;;;0.10;0.10;;;3.70;99.90;;;;;;5051942;28;20042;-92
2022/02/18 03:14:57;;;;;;;0.10;0.10;;;3.80;99.90;;;;;;5035094;28;20095;-85
2022/02/18 03:17:25;;;;;;;0.10;0.10;;;3.80;99.90;;;;;;5035309;28;20077;-85
2022/02/18 03:19:51;;;;;;;0.10;0.10;;;4.40;99.90;;;;;;5051747;28;20052;-88
2022/02/18 03:22:19;;;;;;;0.10;0.10;;;4.00;99.90;;;;;;5035764;28;20752;-85
2022/02/18 03:24:45;;;;;;;0.10;0.10;;;3.90;99.90;;;;;;5035066;28;20041;-85
2022/02/18 03:27:12;;;;;;;0.10;0.10;;;3.90;99.90;;;;;;5051017;28;20107;-85
2022/02/18 03:29:39;;;;;;;0.10;0.10;;;3.90;99.90;;;;;;5051815;28;20045;-85
2022/02/18 03:32:07;;;;;;;0.10;0.10;;;4.50;99.90;;;;;;5035025;28;20038;-85
2022/02/18 03:34:36;;;;;;;0.10;0.10;;;4.00;99.90;;;;;;5051734;28;20033;-91
2022/02/18 03:37:04;;;;;;;0.10;0.10;;;4.00;99.90;;;;;;5035542;28;20118;-85
2022/02/18 03:39:31;;;;;;;0.10;0.10;;;4.00;99.90;;;;;;5051000;28;20536;-92
2022/02/18 03:41:58;;;;;;;0.10;0.10;;;4.50;99.90;;;;;;5035038;28;20037;-91
2022/02/18 03:44:25;;;;;;;0.10;0.10;;;4.00;99.90;;;;;;5051903;28;20052;-85
2022/02/18 03:46:52;;;;;;;0.10;0.10;;;4.70;99.90;;;;;;5034817;28;20053;-85
2022/02/18 03:49:19;;;;;;;0.10;0.10;;;4.10;99.90;;;;;;5037688;28;20041;-92
2022/02/18 03:51:46;;;;;;;0.20;0.20;;;4.40;99.90;;;;;;5053168;28;20160;-85
2022/02/18 03:54:12;;;;;;;0.10;0.10;;;4.10;99.90;;;;;;5059377;28;20033;-92
2022/02/18 03:56:39;;;;;;;0.10;0.10;;;4.10;99.90;;;;;;5035075;28;20049;-85
2022/02/18 03:59:06;;;;;;;0.20;0.20;;;4.30;99.90;;;;;;5050435;28;20124;-91
2022/02/18 04:01:33;;;;;;;0.20;0.20;;;4.10;99.90;;;;;;5037133;28;20056;-92
2022/02/18 04:03:59;;;;;;;0.10;0.10;;;4.10;99.90;;;;;;5033965;28;20057;-85
2022/02/18 04:06:26;;;;;;;0.10;0.10;;;4.10;99.90;;;;;;5034578;28;20109;-91
2022/02/18 04:08:54;;;;;;;0.10;0.10;;;4.10;99.90;;;;;;5034824;28;20029;-85
2022/02/18 04:11:20;;;;;;;0.10;0.10;;;5.00;99.90;;;;;;5034097;28;20041;-85
2022/02/18 04:13:47;;;;;;;0.20;0.20;;;4.60;99.90;;;;;;5034485;28;20049;-91
2022/02/18 04:16:13;;;;;;;0.10;0.10;;;4.10;99.90;;;;;;5049961;28;20071;-84
2022/02/18 04:18:40;;;;;;;0.10;0.10;;;4.90;99.90;;;;;;5034441;28;20048;-92
2022/02/18 04:21:07;;;;;;;0.10;0.10;;;4.10;99.90;;;;;;5034595;28;20069;-85
2022/02/18 04:23:34;;;;;;;0.10;0.10;;;4.80;99.90;;;;;;5039930;28;20378;-91
2022/02/18 04:26:01;;;;;;;0.10;0.10;;;4.30;99.90;;;;;;5037299;28;20080;-91
2022/02/18 04:28:27;;;;;;;0.10;0.10;;;4.40;99.90;;;;;;5038088;28;20073;-85
2022/02/18 04:30:57;;;;;;;0.10;0.10;;;4.20;99.90;;;;;;5041119;28;20036;-91
2022/02/18 04:33:24;;;;;;;0.10;0.10;;;4.20;99.90;;;;;;5069892;28;20444;-85
2022/02/18 04:35:51;;;;;;;0.10;0.10;;;4.60;99.90;;;;;;5037709;28;20083;-85
2022/02/18 04:38:18;;;;;;;0.10;0.10;;;4.20;99.90;;;;;;5061951;28;20087;-85
2022/02/18 04:40:44;;;;;;;0.10;0.10;;;5.30;99.90;;;;;;5034052;28;20033;-85
2022/02/18 04:43:11;;;;;;;0.10;0.10;;;4.20;99.90;;;;;;5033432;28;20406;-85
2022/02/18 04:45:38;;;;;;;0.10;0.10;;;5.10;99.90;;;;;;5033767;28;20039;-85
2022/02/18 04:48:05;;;;;;;0.10;0.10;;;4.30;99.90;;;;;;5033851;28;20041;-92
2022/02/18 04:50:32;;;;;;;0.10;0.10;;;4.30;99.90;;;;;;5033864;28;20556;-85
2022/02/18 04:52:58;;;;;;;0.10;0.10;;;4.30;99.90;;;;;;5033588;28;20045;-86
2022/02/18 04:55:25;;;;;;;0.10;0.10;;;4.30;99.90;;;;;;5033521;28;20042;-85
2022/02/18 04:57:52;;;;;;;0.10;0.10;;;4.40;99.90;;;;;;5033985;28;20087;-92
2022/02/18 05:00:19;;;;;;;0.10;0.10;;;4.40;99.90;;;;;;5033673;28;20060;-92
2022/02/18 05:02:48;;;;;;;0.17;0.17;;;4.40;99.90;;;;;;5034152;28;20038;-91
2022/02/18 05:05:15;;;;;;;0.10;0.10;;;4.40;99.90;;;;;;5049989;28;20437;-85
2022/02/18 05:07:43;;;;;;;0.10;0.10;;;4.60;99.90;;;;;;5050383;28;20498;-92
2022/02/18 05:10:10;;;;;;;0.10;0.10;;;4.90;99.90;;;;;;5034004;28;20041;-91
2022/02/18 05:12:37;;;;;;;0.10;0.10;;;4.50;99.90;;;;;;5066815;28;20041;-85
2022/02/18 05:15:05;;;;;;;0.10;0.10;;;4.50;99.90;;;;;;5049663;28;20029;-85
2022/02/18 05:17:31;;;;;;;0.10;0.10;;;4.50;99.90;;;;;;5033767;28;20471;-85
2022/02/18 05:20:01;;;;;;;0.10;0.10;;;5.00;99.90;;;;;;5033477;28;20080;-92
2022/02/18 05:22:28;;;;;;;0.10;0.10;;;4.60;99.90;;;;;;5034014;28;20045;-85
2022/02/18 05:24:55;;;;;;;0.10;0.10;;;4.60;99.90;;;;;;5033682;28;20573;-91
2022/02/18 05:27:22;;;;;;;0.10;0.10;;;4.70;99.90;;;;;;5033917;28;20045;-85
2022/02/18 05:29:48;;;;;;;0.10;0.10;;;4.70;99.90;;;;;;5049123;28;20411;-85
2022/02/18 05:32:15;;;;;;;0.10;0.10;;;4.70;99.90;;;;;;5033447;28;20051;-92
2022/02/18 05:34:42;;;;;;;0.10;0.10;;;4.70;99.90;;;;;;5034430;28;20044;-85
2022/02/18 05:37:10;;;;;;;0.10;0.10;;;4.70;99.90;;;;;;5049820;28;20042;-86
2022/02/18 05:39:37;;;;;;;0.10;0.10;;;4.60;99.90;;;;;;5033937;28;20045;-91
2022/02/18 05:42:04;;;;;;;0.10;0.10;;;5.20;99.90;;;;;;5053234;28;20033;-92
2022/02/18 05:44:32;;;;;;;0.10;0.10;;;4.70;99.90;;;;;;5037501;28;20048;-92
2022/02/18 05:46:59;;;;;;;0.10;0.10;;;4.70;99.90;;;;;;5037450;28;20126;-92
2022/02/18 05:49:27;;;;;;;0.10;0.10;;;4.60;99.90;;;;;;5053287;28;20132;-85
2022/02/18 05:51:55;;;;;;;0.10;0.10;;;4.70;99.90;;;;;;5037436;28;20048;-85
2022/02/18 05:54:21;;;;;;;0.10;0.10;;;4.60;99.90;;;;;;5037105;28;20041;-92
2022/02/18 05:56:50;;;;;;;0.10;0.10;;;5.00;99.90;;;;;;5036979;28;20038;-85
2022/02/18 05:59:18;;;;;;;0.10;0.10;;;4.60;99.90;;;;;;5037142;28;20103;-92
2022/02/18 06:01:45;;;;;;;0.10;0.10;;;4.70;99.90;;;;;;5037079;28;20517;-86
2022/02/18 06:04:12;;;;;;;0.10;0.10;;;4.70;99.90;;;;;;5054230;28;20041;-91
2022/02/18 06:06:40;;;;;;;0.10;0.10;;;4.20;99.90;;;;;;5053361;28;20049;-85
2022/02/18 06:09:07;;;;;;;0.10;0.10;;;4.70;99.90;;;;;;5037333;28;20120;-85
2022/02/18 06:11:34;;;;;;;0.10;0.10;;;4.70;99.90;;;;;;5053268;28;20490;-86
2022/02/18 06:14:01;;;;;;;0.10;0.10;;;5.40;99.90;;;;;;5036855;28;20095;-91
2022/02/18 06:16:28;;;;;;;0.10;0.10;;;4.70;99.90;;;;;;5037302;28;20038;-86
2022/02/18 06:18:55;;;;;;;0.10;0.10;;;4.70;99.90;;;;;;5036572;28;20034;-92
2022/02/18 06:21:23;;;;;;;0.10;0.10;;;4.70;99.90;;;;;;5052791;28;20501;-86
2022/02/18 06:23:49;;;;;;;0.10;0.10;;;4.80;99.90;;;;;;5036385;28;20068;-92
2022/02/18 06:26:16;;;;;;;0.10;0.10;;;4.80;99.90;;;;;;5036189;28;20037;-92
2022/02/18 06:28:43;;;;;;;0.10;0.10;;;4.80;99.90;;;;;;5037985;28;20041;-85
2022/02/18 06:31:10;;;;;;;0.10;0.10;;;4.80;99.90;;;;;;5036659;28;20056;-92
2022/02/18 06:33:36;;;;;;;0.10;0.10;;;4.80;99.90;;;;;;5036471;28;20053;-92
2022/02/18 06:36:04;;;;;;;0.10;0.10;;;4.80;99.90;;;;;;5036433;28;20042;-92
2022/02/18 06:38:31;;;;;;;0.10;0.10;;;4.90;99.90;;;;;;5052392;28;20045;-86
2022/02/18 06:40:58;;;;;;;0.10;0.10;;;4.90;99.90;;;;;;5053030;28;20041;-92
2022/02/18 06:43:24;;;;;;;0.10;0.10;;;4.80;99.90;;;;;;5036630;28;20403;-92
2022/02/18 06:45:51;;;;;;;0.10;0.10;;;4.80;99.90;;;;;;5036625;28;20061;-86
2022/02/18 06:48:18;;;;;;;0.10;0.10;;;5.10;99.90;;;;;;5035557;28;20103;-92
2022/02/18 06:50:45;;;;;;;0.10;0.10;;;5.50;99.90;;;;;;5036473;28;20088;-91
2022/02/18 06:53:12;;;;;;;0.10;0.10;;;4.80;99.90;;;;;;5052127;28;20068;-86
2022/02/18 06:55:39;;;;;;;0.10;0.10;;;4.90;99.90;;;;;;5029504;28;20055;-91
2022/02/18 06:58:06;;;;;;;0.10;0.10;;;4.90;99.90;;;;;;5048295;28;20049;-93
2022/02/18 07:00:36;;;;;;;0.10;0.10;;;4.80;99.90;;;;;;5040515;28;20037;-85
2022/02/18 07:03:04;;;;;;;0.10;0.10;;;4.90;99.90;;;;;;5052259;28;20041;-86
2022/02/18 07:05:30;;;;;;;0.20;0.20;;;4.80;99.90;;;;;;5051288;28;20513;-92
2022/02/18 07:07:57;;;;;;;0.10;0.10;;;4.80;99.90;;;;;;5035661;28;20072;-93
2022/02/18 07:10:24;;;;;;;0.10;0.10;;;5.40;99.90;;;;;;5035381;28;20068;-91
2022/02/18 07:12:51;;;;;;;0.10;0.10;;;4.80;99.90;;;;;;5035664;28;20037;-85
2022/02/18 07:15:17;;;;;;;0.10;0.10;;;4.90;99.90;;;;;;5051288;28;20140;-85
2022/02/18 07:17:45;;;;;;;0.10;0.10;;;4.90;99.90;;;;;;5035395;28;20041;-91
2022/02/18 07:20:14;;;;;;;0.10;0.10;;;5.20;99.90;;;;;;5052400;28;20037;-86
2022/02/18 07:22:42;;;;;;;0.10;0.10;;;4.90;99.90;;;;;;5034790;28;20085;-86
2022/02/18 07:25:09;;;;;;;0.10;0.10;;;4.90;99.90;;;;;;5047973;28;20120;-85
2022/02/18 07:27:36;;;;;;;0.10;0.10;;;4.90;99.90;;;;;;5069029;28;20041;-86
2022/02/18 07:30:04;;;;;;;0.52;0.50;;;4.90;99.90;;;;;;5048453;28;20045;-86
2022/02/18 07:32:31;;;;;;;0.10;0.10;;;4.90;99.90;;;;;;5061418;28;20060;-86
2022/02/18 07:34:58;;;;;;;0.10;0.10;;;4.90;99.90;;;;;;5035979;28;20045;-91
2022/02/18 07:37:24;;;;;;;0.10;0.10;;;4.90;99.90;;;;;;5018898;28;20042;-86
2022/02/18 07:39:51;;;;;;;0.10;0.10;;;5.00;99.90;;;;;;5019057;28;20037;-92
2022/02/18 07:42:18;;;;;;;0.10;0.10;;;5.00;99.90;;;;;;5061453;28;20048;-92
2022/02/18 07:44:45;;;;;;;0.10;0.10;;;5.00;99.90;;;;;;5067337;28;20132;-92
2022/02/18 07:47:12;;;;;;;0.10;0.10;;;5.00;99.90;;;;;;5053555;28;20053;-91
2022/02/18 07:49:40;;;;;;;0.10;0.10;;;5.80;99.90;;;;;;5037982;28;20049;-92
2022/02/18 07:52:07;;;;;;;0.10;0.10;;;5.10;99.90;;;;;;5031713;28;20055;-86
2022/02/18 07:54:35;;;;;;;0.10;0.10;;;5.10;99.90;;;;;;5071053;28;20048;-92
2022/02/18 07:57:03;;;;;;;0.10;0.10;;;5.00;99.90;;;;;;5071360;28;20037;-86
2022/02/18 07:59:29;;;;;;;0.30;0.30;;;5.10;99.90;;;;;;5054021;28;20056;-86
2022/02/18 08:01:56;;;;;;;0.10;0.10;;;5.10;99.90;;;;;;5033270;28;20029;-86
2022/02/18 08:04:23;;;;;;;0.10;0.10;;;5.10;99.90;;;;;;5021874;28;20039;-86
2022/02/18 08:06:50;;;;;;;0.10;0.10;;;5.20;99.90;;;;;;5054473;28;20397;-86
2022/02/18 08:09:18;;;;;;;0.10;0.10;;;6.10;99.90;;;;;;5037476;28;20076;-93
2022/02/18 08:11:45;;;;;;;0.10;0.10;;;5.20;99.90;;;;;;5052450;28;20049;-86
2022/02/18 08:14:11;;;;;;;0.10;0.10;;;5.70;99.90;;;;;;5043852;28;20041;-86
2022/02/18 08:16:38;;;;;;;0.10;0.10;;;;;;;;;;5034439;28;20529;-92
2022/02/18 08:19:10;;;;;;;0.10;0.10;;;5.30;99.90;;;;;;5063531;28;20036;-86
2022/02/18 08:21:52;;;;;;;0.10;0.10;;;5.40;99.90;;;;;;5085026;28;20094;-86
2022/02/18 08:24:19;;;;;;;0.10;0.10;;;5.40;99.90;;;;;;5042612;28;20453;-91
2022/02/18 08:26:51;;;;;;;0.10;0.10;;;5.40;99.90;;;;;;5069770;28;20561;-86
2022/02/18 08:29:20;;;;;;;0.10;0.10;;;5.40;99.90;;;;;;5066885;28;20048;-85
2022/02/18 08:31:48;;;;;;;0.10;0.10;;;5.40;99.90;;;;;;5064967;28;20083;-86
2022/02/18 08:34:39;;;;;;;0.10;0.10;;;5.40;99.90;;;;;;5053621;28;20375;-86
2022/02/18 08:37:05;;;;;;;0.10;0.10;;;5.70;99.90;;;;;;5070066;28;20072;-85
2022/02/18 08:39:32;;;;;;;0.10;0.10;;;5.40;99.90;;;;;;5070574;28;20076;-90
2022/02/18 08:41:59;;;;;;;0.10;0.10;;;5.50;99.90;;;;;;5070775;28;20516;-84
2022/02/18 08:44:26;;;;;;;0.10;0.10;;;5.50;99.90;;;;;;5069273;28;20036;-90
2022/02/18 08:46:52;;;;;;;0.10;0.10;;;5.90;99.90;;;;;;5054000;28;20055;-85
2022/02/18 08:49:19;;;;;;;0.10;0.10;;;5.60;99.90;;;;;;5054353;28;20045;-84
2022/02/18 08:51:46;;;;;;;0.10;0.10;;;5.60;99.90;;;;;;5052858;28;20094;-84
2022/02/18 08:54:31;;;;;;;0.17;0.17;;;5.60;99.90;;;;;;5185969;27;1294198;-88
2022/02/18 08:56:57;;;;;;;0.10;0.10;;;5.60;99.90;;;;;;5138409;27;20049;-84
2022/02/18 08:59:24;;;;;;;0.10;0.10;;;5.60;99.90;;;;;;5155589;27;20098;-91
2022/02/18 09:01:51;;;;;;;0.10;0.10;;;5.90;99.90;;;;;;5155469;27;20491;-90
2022/02/18 09:04:18;;;;;;;0.10;0.10;;;5.60;99.90;;;;;;5156058;27;20102;-90
2022/02/18 09:06:45;;;;;;;0.60;0.47;;;5.60;99.90;;;;;;5172783;27;20491;-85
2022/02/18 09:09:12;;;;;;;0.10;0.10;;;5.60;99.90;;;;;;5172179;27;20105;-85
2022/02/18 09:11:40;;;;;;;0.10;0.10;;;6.40;99.90;;;;;;5137621;27;20076;-85
2022/02/18 09:14:07;;;;;;;0.10;0.10;;;5.70;99.90;;;;;;5139029;27;20530;-89
2022/02/18 09:16:34;;;;;;;0.10;0.10;;;5.70;99.90;;;;;;5156234;27;20078;-90
2022/02/18 09:19:00;;;;;;;0.10;0.10;;;6.20;99.90;;;;;;5138608;27;20121;-85
2022/02/18 09:21:27;;;;;;;0.10;0.10;;;5.80;99.90;;;;;;5154962;27;20038;-90
2022/02/18 09:23:54;;;;;;;0.10;0.10;;;6.30;99.90;;;;;;5138213;27;20394;-83
2022/02/18 09:26:25;;;;;;;0.10;0.10;;;5.80;99.90;;;;;;5137614;27;20037;-85
2022/02/18 09:28:53;;;;;;;0.10;0.10;;;5.80;99.90;;;;;;5154576;27;20042;-90
2022/02/18 09:31:20;;;;;;;0.10;0.10;;;5.80;99.90;;;;;;5171285;27;20039;-85
2022/02/18 09:33:49;;;;;;;0.10;0.10;;;5.80;99.90;;;;;;5155834;27;20046;-85
2022/02/18 09:36:19;;;;;;;0.52;0.52;;;5.80;99.90;;;;;;5171600;27;20110;-84
2022/02/18 09:38:46;;;;;;;0.10;0.10;;;5.90;99.90;;;;;;5155199;27;20121;-88
2022/02/18 09:41:13;;;;;;;0.10;0.10;;;5.90;99.90;;;;;;5171683;27;20459;-85
2022/02/18 09:43:41;;;;;;;0.10;0.10;;;5.90;99.90;;;;;;5134061;27;20039;-89
2022/02/18 09:46:08;;;;;;;0.10;0.10;;;6.00;99.90;;;;;;5134774;27;20046;-85
2022/02/18 09:48:38;;;;;;;0.10;0.10;;;6.00;99.90;;;;;;5150804;27;20042;-85
2022/02/18 09:51:07;;;;;;;0.10;0.10;;;6.00;99.90;;;;;;5150590;27;20076;-84
2022/02/18 09:53:34;;;;;;;0.20;0.20;;;6.10;99.90;;;;;;5167083;27;20043;-85
2022/02/18 09:56:03;;;;;;;0.10;0.10;;;6.10;99.90;;;;;;5133660;27;20039;-85
2022/02/18 09:58:29;;;;;;;0.10;0.10;;;6.10;99.90;;;;;;5116012;27;20142;-85
2022/02/18 10:00:57;;;;;;;0.10;0.10;;;6.10;99.90;;;;;;5116159;27;20122;-89
2022/02/18 10:03:23;;;;;;;0.10;0.10;;;6.20;99.90;;;;;;5134318;27;20042;-85
2022/02/18 10:05:50;;;;;;;0.10;0.10;;;6.40;99.90;;;;;;5136914;27;20117;-85
2022/02/18 10:08:22;;;;;;;0.10;0.10;;;6.30;99.90;;;;;;5104533;27;20035;-84
2022/02/18 10:11:03;;;;;;;0.10;0.10;;;6.30;99.90;;;;;;5119942;27;20054;-85
2022/02/18 10:13:38;;;;;;;0.10;0.10;;;6.40;99.90;;;;;;5136542;27;20035;-85
2022/02/18 10:16:10;;;;;;;0.10;0.10;;;6.40;99.90;;;;;;5136340;27;20043;-89
2022/02/18 10:18:52;;;;;;;0.10;0.10;;;6.40;99.90;;;;;;5120051;27;20038;-89
2022/02/18 10:21:30;;;;;;;0.10;0.10;;;6.50;99.90;;;;;;5136701;27;20037;-84
2022/02/18 10:24:14;;;;;;;0.10;0.10;;;6.60;99.90;;;;;;5136942;27;20039;-85
2022/02/18 10:26:48;;;;;;;0.10;0.10;;;6.60;99.90;;;;;;5136106;27;20043;-89
2022/02/18 10:29:25;;;;;;;0.10;0.10;;;6.70;99.90;;;;;;5135595;27;20046;-89
2022/02/18 10:32:12;;;;;;;0.10;0.10;;;6.70;99.90;;;;;;5135716;27;20130;-85
2022/02/18 10:34:55;;;;;;;0.10;0.10;;;6.80;99.90;;;;;;5119169;27;20116;-85
2022/02/18 10:37:24;;;;;;;0.10;0.10;;;6.90;99.90;;;;;;5136143;27;20168;-85
2022/02/18 10:40:04;;;;;;;0.10;0.10;;;7.00;99.90;;;;;;5119006;27;20152;-85
2022/02/18 10:42:32;;;;;;;0.10;0.10;;;7.10;99.90;;;;;;5135933;27;20036;-89
2022/02/18 10:45:15;;;;;;;0.10;0.10;;;7.10;99.90;;;;;;5118559;27;20050;-85
2022/02/18 10:47:43;;;;;;;0.10;0.10;;;7.20;99.90;;;;;;5135876;27;20039;-84
2022/02/18 10:50:26;;;;;;;0.10;0.10;;;7.30;99.90;;;;;;5135843;27;20043;-85
2022/02/18 10:53:19;;;;;;;0.10;0.10;;;7.40;99.90;;;;;;5136441;27;20043;-89
2022/02/18 10:55:53;;;;;;;0.10;0.10;;;7.50;99.90;;;;;;5136020;27;20043;-89
2022/02/18 10:58:24;;;;;;;0.10;0.10;;;7.60;99.90;;;;;;5135558;27;20039;-85
2022/02/18 11:01:15;;;;;;;0.10;0.10;;;7.60;99.90;;;;;;5134865;27;20172;-89
2022/02/18 11:03:47;;;;;;;0.00;0.00;;;7.70;99.90;;;;;;5135323;27;20039;-84
2022/02/18 11:06:17;;;;;;;0.10;0.10;;;7.70;99.90;;;;;;5136019;27;20096;-89
2022/02/18 11:09:00;;;;;;;0.10;0.10;;;7.80;99.90;;;;;;5135804;27;20039;-84
2022/02/18 11:11:31;;;;;;;0.30;0.30;;;7.90;99.90;;;;;;5135016;27;20049;-85
2022/02/18 11:13:59;;;;;;;0.10;0.10;;;8.00;99.90;;;;;;5134525;27;20108;-85
2022/02/18 11:16:28;;;;;;;0.10;0.10;;;8.00;99.90;;;;;;5117651;27;20050;-88
2022/02/18 11:18:56;;;;;;;0.15;0.15;;;8.10;99.90;;;;;;5119283;27;20035;-88
2022/02/18 11:21:27;;;;;;;0.10;0.10;;;8.10;99.90;;;;;;5136053;27;20407;-85
2022/02/18 11:23:59;;;;;;;0.10;0.10;;;8.20;99.90;;;;;;5118030;27;20035;-85
2022/02/18 11:26:28;;;;;;;0.10;0.10;;;8.30;99.90;;;;;;5135136;27;20532;-84
2022/02/18 11:28:55;;;;;;;0.10;0.10;;;8.30;99.90;;;;;;5134493;27;20403;-84
2022/02/18 11:31:40;;;;;;;0.10;0.10;;;8.30;99.90;;;;;;5134984;27;20035;-84
2022/02/18 11:34:26;;;;;;;0.10;0.10;;;8.30;99.90;;;;;;5135118;27;20047;-84
2022/02/18 11:37:26;;;;;;;0.10;0.10;;;8.40;99.90;;;;;;5133600;27;20075;-85
2022/02/18 11:40:37;;;;;;;0.10;0.10;;;8.50;99.90;;;;;;5135583;27;20043;-89
2022/02/18 11:43:23;;;;;;;0.00;0.00;;;8.50;99.90;;;;;;5054087;28;20045;-90
2022/02/18 11:45:57;;;;;;;;;;;8.50;99.90;;;;;;5071111;28;20164;-90
2022/02/18 11:48:44;;;;;;;0.10;0.10;;;8.60;99.90;;;;;;5038870;28;20370;-91
2022/02/18 11:51:15;;;;;;;0.10;0.10;;;8.60;99.90;;;;;;5078053;28;20134;-85
2022/02/18 11:53:51;;;;;;;0.43;0.38;;;8.70;99.90;;;;;;5127508;28;20064;-90
2022/02/18 11:57:09;;;;;;;0.03;0.03;;;8.60;99.90;;;;;;5130347;28;20405;-90
2022/02/18 11:59:56;;;;;;;0.20;0.20;;;8.70;99.90;;;;;;5086275;28;20058;-84
2022/02/18 12:02:40;;;;;;;0.10;0.10;;;8.70;99.90;;;;;;5131120;28;20044;-85
2022/02/18 12:05:21;;;;;;;0.10;0.10;;;8.70;99.90;;;;;;5131383;28;20488;-84
2022/02/18 12:07:59;;;;;;;0.00;0.00;;;8.80;99.90;;;;;;5133522;28;20039;-90
2022/02/18 12:10:52;;;;;;;0.08;0.08;;;8.80;99.90;;;;;;5130420;28;20479;-85
2022/02/18 12:13:19;;;;;;;0.03;0.03;;;8.80;99.90;;;;;;5112560;28;20508;-91
2022/02/18 12:15:48;;;;;;;0.10;0.10;;;8.90;99.90;;;;;;5093399;28;20044;-85
2022/02/18 12:18:24;;;;;;;0.08;0.08;;;9.00;99.90;;;;;;5093464;28;20040;-90
2022/02/18 12:21:07;;;;;;;0.10;0.10;;;9.10;99.90;;;;;;5111009;28;20040;-91
2022/02/18 12:23:42;;;;;;;0.00;0.00;;;9.20;99.90;;;;;;5145009;28;20404;-91
2022/02/18 12:26:24;;;;;;;0.10;0.10;;;9.20;99.90;;;;;;5110983;28;20036;-90
2022/02/18 12:29:12;;;;;;;0.10;0.10;;;9.20;99.90;;;;;;5124128;28;20039;-85
2022/02/18 12:32:20;;;;;;;0.00;0.00;;;9.30;99.90;;;;;;5130180;28;20077;-85
2022/02/18 12:35:12;;;;;;;0.00;0.00;;;9.40;99.90;;;;;;5095831;28;20071;-85
2022/02/18 12:37:39;;;;;;;0.00;0.00;;;9.40;99.90;;;;;;5118238;28;20036;-90
2022/02/18 12:40:23;;;;;;;0.00;0.00;;;9.50;99.90;;;;;;5110640;28;20036;-90
2022/02/18 12:46:08;;;;;;;0.10;0.10;;;9.70;99.90;;;;;;5143627;28;20051;-85
2022/02/18 12:48:40;;;;;;;0.30;0.30;;;9.70;99.90;;;;;;5129926;28;20051;-85
2022/02/18 12:51:12;;;;;;;0.10;0.10;;;9.70;99.90;;;;;;5130436;28;20039;-92
2022/02/18 12:53:40;;;;;;;0.00;0.00;;;9.70;99.90;;;;;;5130209;28;20405;-91
2022/02/18 12:56:15;;;;;;;0.10;0.10;;;9.80;99.90;;;;;;5113569;28;20381;-91
2022/02/18 12:59:00;;;;;;;0.00;0.00;;;9.80;99.90;;;;;;5114777;28;20624;-87
2022/02/18 13:01:28;;;;;;;0.00;0.00;;;9.90;99.90;;;;;;5131742;28;20038;-84
2022/02/18 13:04:15;;;;;;;0.00;0.00;;;9.90;99.90;;;;;;5112542;28;20526;-91
2022/02/18 13:09:47;;;;;;;0.10;0.10;;;9.90;99.90;;;;;;5116063;28;20059;-91
2022/02/18 13:12:58;;;;;;;0.00;0.00;;;9.90;99.90;;;;;;5112420;28;20122;-85
2022/02/18 13:15:29;;;;;;;0.00;0.00;;;9.90;99.90;;;;;;5123838;28;20043;-91
2022/02/18 13:18:02;;;;;;;0.00;0.00;;;10.00;99.90;;;;;;5147515;28;20038;-90